sensor_id;sensor_type;location;lat;lon;timestamp;pressure;altitude;pressure_sealevel;temperature;humidity
59194;BME280;44967;48.598;15.650;2023-03-01T00:01:48;99252.69;;;-1.70;68.10
59194;BME280;44967;48.598;15.650;2023-03-01T00:04:14;99255.91;;;-1.77;69.27
59194;BME280;44967;48.598;15.650;2023-03-01T00:06:42;99243.97;;;-1.72;68.57
59194;BME280;44967;48.598;15.650;2023-03-01T00:09:12;99246.13;;;-1.86;69.48
59194;BME280;44967;48.598;15.650;2023-03-01T00:11:38;99237.56;;;-1.83;69.44
59194;BME280;44967;48.598;15.650;2023-03-01T00:14:04;99248.03;;;-1.80;69.11
59194;BME280;44967;48.598;15.650;2023-03-01T00:16:37;99244.63;;;-1.79;68.92
59194;BME280;44967;48.598;15.650;2023-03-01T00:19:12;99235.91;;;-1.81;68.95
59194;BME280;44967;48.598;15.650;2023-03-01T00:21:38;99240.09;;;-1.85;69.22
59194;BME280;44967;48.598;15.650;2023-03-01T00:24:04;99239.91;;;-1.91;68.81
59194;BME280;44967;48.598;15.650;2023-03-01T00:26:30;99244.03;;;-1.96;69.24
59194;BME280;44967;48.598;15.650;2023-03-01T00:28:57;99244.00;;;-1.98;69.56
59194;BME280;44967;48.598;15.650;2023-03-01T00:31:26;99243.13;;;-1.98;69.27
59194;BME280;44967;48.598;15.650;2023-03-01T00:33:59;99246.38;;;-2.04;69.66
59194;BME280;44967;48.598;15.650;2023-03-01T00:36:33;99233.66;;;-1.98;69.72
59194;BME280;44967;48.598;15.650;2023-03-01T00:39:00;99243.78;;;-2.04;69.44
59194;BME280;44967;48.598;15.650;2023-03-01T00:41:26;99241.63;;;-1.92;69.55
59194;BME280;44967;48.598;15.650;2023-03-01T00:43:52;99245.47;;;-2.06;69.51
59194;BME280;44967;48.598;15.650;2023-03-01T00:46:23;99231.66;;;-2.05;69.92
59194;BME280;44967;48.598;15.650;2023-03-01T00:48:49;99229.78;;;-2.09;70.12
59194;BME280;44967;48.598;15.650;2023-03-01T00:51:21;99221.63;;;-1.96;69.26
59194;BME280;44967;48.598;15.650;2023-03-01T00:53:50;99225.66;;;-2.04;69.38
59194;BME280;44967;48.598;15.650;2023-03-01T00:56:16;99222.16;;;-2.06;69.79
59194;BME280;44967;48.598;15.650;2023-03-01T00:58:43;99210.84;;;-2.08;69.53
59194;BME280;44967;48.598;15.650;2023-03-01T01:01:12;99217.06;;;-2.03;69.50
59194;BME280;44967;48.598;15.650;2023-03-01T01:04:00;99216.84;;;-2.09;69.53
59194;BME280;44967;48.598;15.650;2023-03-01T01:06:29;99219.84;;;-1.97;68.90
59194;BME280;44967;48.598;15.650;2023-03-01T01:08:56;99213.38;;;-2.09;69.68
59194;BME280;44967;48.598;15.650;2023-03-01T01:11:23;99207.22;;;-2.13;69.70
59194;BME280;44967;48.598;15.650;2023-03-01T01:13:49;99210.44;;;-2.20;69.88
59194;BME280;44967;48.598;15.650;2023-03-01T01:16:17;99210.66;;;-2.14;69.78
59194;BME280;44967;48.598;15.650;2023-03-01T01:18:43;99205.09;;;-2.24;70.37
59194;BME280;44967;48.598;15.650;2023-03-01T01:21:12;99205.06;;;-2.26;70.05
59194;BME280;44967;48.598;15.650;2023-03-01T01:23:39;99196.59;;;-2.20;70.17
59194;BME280;44967;48.598;15.650;2023-03-01T01:26:08;99196.25;;;-2.31;70.63
59194;BME280;44967;48.598;15.650;2023-03-01T01:28:36;99200.59;;;-2.30;70.78
59194;BME280;44967;48.598;15.650;2023-03-01T01:31:02;99196.44;;;-2.25;69.48
59194;BME280;44967;48.598;15.650;2023-03-01T01:33:28;99190.84;;;-2.37;70.47
59194;BME280;44967;48.598;15.650;2023-03-01T01:35:56;99195.81;;;-2.43;70.38
59194;BME280;44967;48.598;15.650;2023-03-01T01:38:22;99190.97;;;-2.34;70.13
59194;BME280;44967;48.598;15.650;2023-03-01T01:40:49;99185.81;;;-2.34;70.15
59194;BME280;44967;48.598;15.650;2023-03-01T01:43:22;99192.22;;;-2.23;70.15
59194;BME280;44967;48.598;15.650;2023-03-01T01:45:50;99190.53;;;-2.21;70.24
59194;BME280;44967;48.598;15.650;2023-03-01T01:48:20;99175.81;;;-2.23;68.81
59194;BME280;44967;48.598;15.650;2023-03-01T01:50:54;99169.56;;;-2.30;69.49
59194;BME280;44967;48.598;15.650;2023-03-01T01:53:21;99171.16;;;-2.33;69.77
59194;BME280;44967;48.598;15.650;2023-03-01T01:55:58;99178.84;;;-2.35;69.71
59194;BME280;44967;48.598;15.650;2023-03-01T01:58:27;99169.41;;;-2.33;70.19
59194;BME280;44967;48.598;15.650;2023-03-01T02:00:55;99174.50;;;-2.36;70.13
59194;BME280;44967;48.598;15.650;2023-03-01T02:03:27;99173.88;;;-2.54;70.25
59194;BME280;44967;48.598;15.650;2023-03-01T02:08:31;99173.25;;;-2.47;70.54
59194;BME280;44967;48.598;15.650;2023-03-01T02:10:59;99181.53;;;-2.57;70.27
59194;BME280;44967;48.598;15.650;2023-03-01T02:13:26;99171.28;;;-2.54;70.03
59194;BME280;44967;48.598;15.650;2023-03-01T02:15:52;99165.16;;;-2.56;71.07
59194;BME280;44967;48.598;15.650;2023-03-01T02:18:20;99162.28;;;-2.65;71.49
59194;BME280;44967;48.598;15.650;2023-03-01T02:21:08;99172.09;;;-2.55;71.18
59194;BME280;44967;48.598;15.650;2023-03-01T02:23:38;99160.72;;;-2.60;70.85
59194;BME280;44967;48.598;15.650;2023-03-01T02:26:40;99166.13;;;-2.54;71.18
59194;BME280;44967;48.598;15.650;2023-03-01T02:29:06;99165.88;;;-2.60;71.12
59194;BME280;44967;48.598;15.650;2023-03-01T02:31:32;99167.09;;;-2.51;71.02
59194;BME280;44967;48.598;15.650;2023-03-01T02:34:09;99162.81;;;-2.50;71.16
59194;BME280;44967;48.598;15.650;2023-03-01T02:36:38;99166.16;;;-2.53;70.63
59194;BME280;44967;48.598;15.650;2023-03-01T02:39:07;99160.06;;;-2.55;70.46
59194;BME280;44967;48.598;15.650;2023-03-01T02:41:43;99163.56;;;-2.53;70.68
59194;BME280;44967;48.598;15.650;2023-03-01T02:44:09;99167.00;;;-2.54;70.63
59194;BME280;44967;48.598;15.650;2023-03-01T02:46:46;99164.34;;;-2.55;71.12
59194;BME280;44967;48.598;15.650;2023-03-01T02:49:22;99166.03;;;-2.57;70.25
59194;BME280;44967;48.598;15.650;2023-03-01T02:57:13;99168.63;;;-2.56;70.14
59194;BME280;44967;48.598;15.650;2023-03-01T02:59:40;99168.00;;;-2.74;71.35
59194;BME280;44967;48.598;15.650;2023-03-01T03:02:20;99170.69;;;-2.71;71.27
59194;BME280;44967;48.598;15.650;2023-03-01T03:07:33;99168.88;;;-2.73;71.15
59194;BME280;44967;48.598;15.650;2023-03-01T03:10:01;99164.53;;;-2.98;71.72
59194;BME280;44967;48.598;15.650;2023-03-01T03:12:27;99176.00;;;-3.14;72.41
59194;BME280;44967;48.598;15.650;2023-03-01T03:14:53;99172.91;;;-3.27;73.77
59194;BME280;44967;48.598;15.650;2023-03-01T03:17:18;99170.50;;;-3.23;73.61
59194;BME280;44967;48.598;15.650;2023-03-01T03:19:44;99170.59;;;-3.20;73.97
59194;BME280;44967;48.598;15.650;2023-03-01T03:22:13;99171.91;;;-3.09;73.13
59194;BME280;44967;48.598;15.650;2023-03-01T03:24:39;99173.91;;;-3.00;72.83
59194;BME280;44967;48.598;15.650;2023-03-01T03:27:05;99170.94;;;-2.89;72.50
59194;BME280;44967;48.598;15.650;2023-03-01T03:29:31;99168.72;;;-2.78;72.19
59194;BME280;44967;48.598;15.650;2023-03-01T03:31:57;99171.47;;;-2.73;72.00
59194;BME280;44967;48.598;15.650;2023-03-01T03:34:23;99168.81;;;-2.75;72.55
59194;BME280;44967;48.598;15.650;2023-03-01T03:36:56;99161.75;;;-2.80;73.01
59194;BME280;44967;48.598;15.650;2023-03-01T03:39:25;99164.69;;;-2.70;72.21
59194;BME280;44967;48.598;15.650;2023-03-01T03:41:51;99168.16;;;-2.69;71.53
59194;BME280;44967;48.598;15.650;2023-03-01T03:44:17;99161.94;;;-2.74;72.66
59194;BME280;44967;48.598;15.650;2023-03-01T03:46:42;99166.47;;;-2.69;72.60
59194;BME280;44967;48.598;15.650;2023-03-01T03:49:08;99159.41;;;-2.49;72.16
59194;BME280;44967;48.598;15.650;2023-03-01T03:51:33;99153.63;;;-2.41;70.76
59194;BME280;44967;48.598;15.650;2023-03-01T03:53:59;99154.84;;;-2.31;71.39
59194;BME280;44967;48.598;15.650;2023-03-01T03:56:25;99157.03;;;-2.18;70.87
59194;BME280;44967;48.598;15.650;2023-03-01T03:58:52;99157.22;;;-2.12;70.90
59194;BME280;44967;48.598;15.650;2023-03-01T04:01:18;99152.34;;;-2.03;70.79
59194;BME280;44967;48.598;15.650;2023-03-01T04:03:44;99143.84;;;-1.99;70.24
59194;BME280;44967;48.598;15.650;2023-03-01T04:06:13;99149.13;;;-1.96;69.81
59194;BME280;44967;48.598;15.650;2023-03-01T04:08:39;99154.75;;;-1.82;69.52
59194;BME280;44967;48.598;15.650;2023-03-01T04:11:06;99147.06;;;-1.79;69.45
59194;BME280;44967;48.598;15.650;2023-03-01T04:13:55;99140.28;;;-1.75;69.84
59194;BME280;44967;48.598;15.650;2023-03-01T04:16:22;99142.22;;;-1.68;69.34
59194;BME280;44967;48.598;15.650;2023-03-01T04:18:47;99135.47;;;-1.63;69.50
59194;BME280;44967;48.598;15.650;2023-03-01T04:21:13;99152.06;;;-1.58;69.63
59194;BME280;44967;48.598;15.650;2023-03-01T04:23:39;99146.16;;;-1.53;70.05
59194;BME280;44967;48.598;15.650;2023-03-01T04:26:06;99145.34;;;-1.50;69.78
59194;BME280;44967;48.598;15.650;2023-03-01T04:28:39;99148.97;;;-1.45;69.64
59194;BME280;44967;48.598;15.650;2023-03-01T04:31:08;99141.34;;;-1.40;69.43
59194;BME280;44967;48.598;15.650;2023-03-01T04:33:52;99142.63;;;-1.26;69.19
59194;BME280;44967;48.598;15.650;2023-03-01T04:36:19;99144.22;;;-1.31;69.80
59194;BME280;44967;48.598;15.650;2023-03-01T04:38:45;99146.97;;;-1.27;69.61
59194;BME280;44967;48.598;15.650;2023-03-01T04:41:16;99147.94;;;-1.22;69.65
59194;BME280;44967;48.598;15.650;2023-03-01T04:43:43;99152.38;;;-1.19;68.93
59194;BME280;44967;48.598;15.650;2023-03-01T04:46:15;99151.41;;;-1.23;69.50
59194;BME280;44967;48.598;15.650;2023-03-01T04:48:43;99136.88;;;-1.16;69.38
59194;BME280;44967;48.598;15.650;2023-03-01T04:51:10;99136.00;;;-1.17;68.81
59194;BME280;44967;48.598;15.650;2023-03-01T04:53:38;99127.22;;;-1.22;68.49
59194;BME280;44967;48.598;15.650;2023-03-01T04:56:04;99134.34;;;-1.15;68.11
59194;BME280;44967;48.598;15.650;2023-03-01T04:58:30;99138.13;;;-1.04;68.10
59194;BME280;44967;48.598;15.650;2023-03-01T05:00:56;99140.88;;;-0.98;68.16
59194;BME280;44967;48.598;15.650;2023-03-01T05:03:22;99135.34;;;-0.80;67.47
59194;BME280;44967;48.598;15.650;2023-03-01T05:05:50;99138.69;;;-0.84;67.58
59194;BME280;44967;48.598;15.650;2023-03-01T05:08:16;99137.88;;;-0.81;67.70
59194;BME280;44967;48.598;15.650;2023-03-01T05:10:50;99147.50;;;-0.77;67.73
59194;BME280;44967;48.598;15.650;2023-03-01T05:13:18;99141.34;;;-0.81;67.55
59194;BME280;44967;48.598;15.650;2023-03-01T05:15:54;99144.16;;;-0.73;67.39
59194;BME280;44967;48.598;15.650;2023-03-01T05:18:20;99140.66;;;-0.75;67.34
59194;BME280;44967;48.598;15.650;2023-03-01T05:20:46;99137.31;;;-0.71;67.25
59194;BME280;44967;48.598;15.650;2023-03-01T05:23:13;99127.00;;;-0.68;67.14
59194;BME280;44967;48.598;15.650;2023-03-01T05:25:39;99127.00;;;-0.68;67.22
59194;BME280;44967;48.598;15.650;2023-03-01T05:28:08;99132.34;;;-0.64;66.96
59194;BME280;44967;48.598;15.650;2023-03-01T05:30:35;99134.13;;;-0.61;67.18
59194;BME280;44967;48.598;15.650;2023-03-01T05:33:00;99144.56;;;-0.60;67.91
59194;BME280;44967;48.598;15.650;2023-03-01T05:35:26;99140.31;;;-0.56;67.53
59194;BME280;44967;48.598;15.650;2023-03-01T05:37:52;99148.09;;;-0.56;67.83
59194;BME280;44967;48.598;15.650;2023-03-01T05:40:22;99146.41;;;-0.56;67.97
59194;BME280;44967;48.598;15.650;2023-03-01T05:42:54;99144.88;;;-0.47;67.76
59194;BME280;44967;48.598;15.650;2023-03-01T05:45:21;99148.25;;;-0.52;67.66
59194;BME280;44967;48.598;15.650;2023-03-01T05:47:48;99149.13;;;-0.50;68.12
59194;BME280;44967;48.598;15.650;2023-03-01T05:50:17;99150.09;;;-0.46;67.97
59194;BME280;44967;48.598;15.650;2023-03-01T05:52:50;99147.63;;;-0.41;66.99
59194;BME280;44967;48.598;15.650;2023-03-01T05:55:21;99154.72;;;-0.36;66.67
59194;BME280;44967;48.598;15.650;2023-03-01T05:57:46;99153.81;;;-0.36;66.71
59194;BME280;44967;48.598;15.650;2023-03-01T06:00:14;99160.81;;;-0.34;65.60
59194;BME280;44967;48.598;15.650;2023-03-01T06:02:41;99157.41;;;-0.31;65.93
59194;BME280;44967;48.598;15.650;2023-03-01T06:05:08;99162.78;;;-0.25;65.55
59194;BME280;44967;48.598;15.650;2023-03-01T06:07:35;99165.50;;;-0.21;66.45
59194;BME280;44967;48.598;15.650;2023-03-01T06:10:02;99160.88;;;-0.31;65.90
59194;BME280;44967;48.598;15.650;2023-03-01T06:12:33;99164.41;;;-0.29;65.67
59194;BME280;44967;48.598;15.650;2023-03-01T06:15:00;99163.47;;;-0.31;65.75
59194;BME280;44967;48.598;15.650;2023-03-01T06:17:33;99177.59;;;-0.21;65.42
59194;BME280;44967;48.598;15.650;2023-03-01T06:20:10;99178.50;;;-0.19;65.50
59194;BME280;44967;48.598;15.650;2023-03-01T06:22:36;99174.13;;;-0.22;65.65
59194;BME280;44967;48.598;15.650;2023-03-01T06:25:02;99164.00;;;-0.11;65.32
59194;BME280;44967;48.598;15.650;2023-03-01T06:27:28;99173.50;;;-0.12;65.54
59194;BME280;44967;48.598;15.650;2023-03-01T06:29:55;99177.91;;;-0.09;65.17
59194;BME280;44967;48.598;15.650;2023-03-01T06:32:20;99188.38;;;-0.06;65.23
59194;BME280;44967;48.598;15.650;2023-03-01T06:34:46;99173.84;;;0.02;65.29
59194;BME280;44967;48.598;15.650;2023-03-01T06:37:12;99170.34;;;0.00;65.02
59194;BME280;44967;48.598;15.650;2023-03-01T06:39:37;99174.94;;;0.10;65.10
59194;BME280;44967;48.598;15.650;2023-03-01T06:42:03;99178.47;;;0.14;64.75
59194;BME280;44967;48.598;15.650;2023-03-01T06:44:29;99177.84;;;0.24;64.81
59194;BME280;44967;48.598;15.650;2023-03-01T06:46:55;99176.25;;;0.29;64.19
59194;BME280;44967;48.598;15.650;2023-03-01T06:49:20;99174.59;;;0.31;64.38
59194;BME280;44967;48.598;15.650;2023-03-01T06:51:46;99169.41;;;0.32;63.55
59194;BME280;44967;48.598;15.650;2023-03-01T06:54:12;99176.72;;;0.47;64.13
59194;BME280;44967;48.598;15.650;2023-03-01T06:56:38;99164.47;;;0.43;64.22
59194;BME280;44967;48.598;15.650;2023-03-01T06:59:04;99165.59;;;0.54;62.98
59194;BME280;44967;48.598;15.650;2023-03-01T07:01:30;99166.66;;;0.62;63.38
59194;BME280;44967;48.598;15.650;2023-03-01T07:03:56;99170.97;;;0.62;62.87
59194;BME280;44967;48.598;15.650;2023-03-01T07:06:22;99167.59;;;0.66;62.48
59194;BME280;44967;48.598;15.650;2023-03-01T07:08:48;99168.53;;;0.69;62.91
59194;BME280;44967;48.598;15.650;2023-03-01T07:11:15;99174.50;;;0.65;62.56
59194;BME280;44967;48.598;15.650;2023-03-01T07:13:40;99170.16;;;0.64;62.91
59194;BME280;44967;48.598;15.650;2023-03-01T07:16:07;99174.63;;;0.71;62.78
59194;BME280;44967;48.598;15.650;2023-03-01T07:18:32;99163.66;;;0.83;61.93
59194;BME280;44967;48.598;15.650;2023-03-01T07:21:03;99170.56;;;0.82;62.42
59194;BME280;44967;48.598;15.650;2023-03-01T07:23:28;99169.53;;;0.74;61.92
59194;BME280;44967;48.598;15.650;2023-03-01T07:25:55;99168.00;;;0.84;62.25
59194;BME280;44967;48.598;15.650;2023-03-01T07:28:23;99169.66;;;0.80;61.62
59194;BME280;44967;48.598;15.650;2023-03-01T07:30:48;99160.28;;;0.88;62.45
59194;BME280;44967;48.598;15.650;2023-03-01T07:33:14;99164.84;;;0.99;61.83
59194;BME280;44967;48.598;15.650;2023-03-01T07:35:40;99160.34;;;0.91;60.99
59194;BME280;44967;48.598;15.650;2023-03-01T07:38:06;99164.91;;;1.02;60.82
59194;BME280;44967;48.598;15.650;2023-03-01T07:40:32;99164.31;;;1.15;61.22
59194;BME280;44967;48.598;15.650;2023-03-01T07:42:58;99162.75;;;1.23;60.83
59194;BME280;44967;48.598;15.650;2023-03-01T07:45:27;99163.84;;;1.34;60.64
59194;BME280;44967;48.598;15.650;2023-03-01T07:47:53;99161.88;;;1.22;60.89
59194;BME280;44967;48.598;15.650;2023-03-01T07:50:20;99158.56;;;1.31;60.21
59194;BME280;44967;48.598;15.650;2023-03-01T07:52:46;99155.06;;;1.30;60.92
59194;BME280;44967;48.598;15.650;2023-03-01T07:55:12;99152.22;;;1.17;59.82
59194;BME280;44967;48.598;15.650;2023-03-01T07:57:38;99143.69;;;1.24;59.88
59194;BME280;44967;48.598;15.650;2023-03-01T08:00:05;99142.78;;;1.23;60.22
59194;BME280;44967;48.598;15.650;2023-03-01T08:02:32;99137.28;;;1.50;60.03
59194;BME280;44967;48.598;15.650;2023-03-01T08:04:57;99132.34;;;1.65;59.69
59194;BME280;44967;48.598;15.650;2023-03-01T08:07:23;99131.53;;;1.69;59.29
59194;BME280;44967;48.598;15.650;2023-03-01T08:09:48;99127.22;;;1.71;59.91
59194;BME280;44967;48.598;15.650;2023-03-01T08:12:14;99131.22;;;1.53;59.95
59194;BME280;44967;48.598;15.650;2023-03-01T08:14:42;99131.19;;;1.51;60.53
59194;BME280;44967;48.598;15.650;2023-03-01T08:17:08;99123.59;;;1.63;59.18
59194;BME280;44967;48.598;15.650;2023-03-01T08:19:34;99122.47;;;1.49;59.55
59194;BME280;44967;48.598;15.650;2023-03-01T08:22:02;99119.97;;;1.55;59.18
59194;BME280;44967;48.598;15.650;2023-03-01T08:24:28;99114.75;;;1.54;59.63
59194;BME280;44967;48.598;15.650;2023-03-01T08:26:54;99119.84;;;1.46;60.09
59194;BME280;44967;48.598;15.650;2023-03-01T08:29:20;99122.34;;;1.41;59.95
59194;BME280;44967;48.598;15.650;2023-03-01T08:31:47;99120.03;;;1.58;60.17
59194;BME280;44967;48.598;15.650;2023-03-01T08:34:15;99120.38;;;1.78;59.48
59194;BME280;44967;48.598;15.650;2023-03-01T08:36:43;99120.72;;;1.96;59.48
59194;BME280;44967;48.598;15.650;2023-03-01T08:39:11;99120.84;;;2.04;59.32
59194;BME280;44967;48.598;15.650;2023-03-01T08:41:38;99111.25;;;2.01;58.21
59194;BME280;44967;48.598;15.650;2023-03-01T08:44:04;99106.97;;;2.06;58.20
59194;BME280;44967;48.598;15.650;2023-03-01T08:46:41;99108.16;;;2.25;58.39
59194;BME280;44967;48.598;15.650;2023-03-01T08:49:12;99110.81;;;2.28;59.01
59194;BME280;44967;48.598;15.650;2023-03-01T08:51:38;99100.38;;;2.28;59.40
59194;BME280;44967;48.598;15.650;2023-03-01T08:54:11;99102.97;;;2.29;57.84
59194;BME280;44967;48.598;15.650;2023-03-01T08:56:37;99099.19;;;2.08;58.40
59194;BME280;44967;48.598;15.650;2023-03-01T08:59:03;99099.34;;;2.18;58.46
59194;BME280;44967;48.598;15.650;2023-03-01T09:01:29;99094.47;;;2.40;58.58
59194;BME280;44967;48.598;15.650;2023-03-01T09:03:55;99085.16;;;2.57;57.99
59194;BME280;44967;48.598;15.650;2023-03-01T09:06:21;99079.38;;;2.82;58.04
59194;BME280;44967;48.598;15.650;2023-03-01T09:08:48;99087.28;;;2.87;57.91
59194;BME280;44967;48.598;15.650;2023-03-01T09:11:20;99082.19;;;2.96;57.24
59194;BME280;44967;48.598;15.650;2023-03-01T09:13:47;99092.63;;;2.96;57.18
59194;BME280;44967;48.598;15.650;2023-03-01T09:16:14;99093.63;;;3.07;56.39
59194;BME280;44967;48.598;15.650;2023-03-01T09:18:40;99095.41;;;3.11;56.80
59194;BME280;44967;48.598;15.650;2023-03-01T09:23:36;99087.41;;;2.96;56.85
59194;BME280;44967;48.598;15.650;2023-03-01T09:26:05;99095.41;;;3.11;56.54
59194;BME280;44967;48.598;15.650;2023-03-01T09:28:31;99094.63;;;3.18;56.06
59194;BME280;44967;48.598;15.650;2023-03-01T09:31:01;99086.97;;;3.36;56.28
59194;BME280;44967;48.598;15.650;2023-03-01T09:33:28;99081.69;;;3.30;55.63
59194;BME280;44967;48.598;15.650;2023-03-01T09:35:58;99076.69;;;3.53;56.33
59194;BME280;44967;48.598;15.650;2023-03-01T09:38:24;99076.91;;;3.74;54.83
59194;BME280;44967;48.598;15.650;2023-03-01T09:40:50;99076.88;;;3.69;54.25
59194;BME280;44967;48.598;15.650;2023-03-01T09:43:40;99079.59;;;3.78;54.50
59194;BME280;44967;48.598;15.650;2023-03-01T09:46:11;99085.84;;;3.97;55.02
59194;BME280;44967;48.598;15.650;2023-03-01T09:49:52;99078.00;;;3.99;55.09
59194;BME280;44967;48.598;15.650;2023-03-01T09:54:54;99065.00;;;4.11;53.76
59194;BME280;44967;48.598;15.650;2023-03-01T09:57:41;99067.03;;;4.48;53.55
59194;BME280;44967;48.598;15.650;2023-03-01T10:00:20;99054.78;;;4.47;53.39
59194;BME280;44967;48.598;15.650;2023-03-01T10:02:52;99065.19;;;4.31;52.40
59194;BME280;44967;48.598;15.650;2023-03-01T10:10:38;99056.63;;;4.60;55.54
59194;BME280;44967;48.598;15.650;2023-03-01T10:13:25;99050.59;;;4.80;54.65
59194;BME280;44967;48.598;15.650;2023-03-01T10:15:56;99054.94;;;4.73;52.95
59194;BME280;44967;48.598;15.650;2023-03-01T10:18:26;99050.63;;;4.81;52.81
59194;BME280;44967;48.598;15.650;2023-03-01T10:21:00;99047.09;;;4.79;52.50
59194;BME280;44967;48.598;15.650;2023-03-01T10:23:29;99041.84;;;4.74;52.71
59194;BME280;44967;48.598;15.650;2023-03-01T10:29:03;99036.47;;;4.44;51.91
59194;BME280;44967;48.598;15.650;2023-03-01T10:34:17;99033.13;;;4.72;52.85
59194;BME280;44967;48.598;15.650;2023-03-01T10:36:48;99023.63;;;4.97;51.29
59194;BME280;44967;48.598;15.650;2023-03-01T10:39:20;99027.97;;;4.98;51.77
59194;BME280;44967;48.598;15.650;2023-03-01T10:44:37;99021.94;;;5.27;50.57
59194;BME280;44967;48.598;15.650;2023-03-01T10:47:03;99018.44;;;5.09;51.48
59194;BME280;44967;48.598;15.650;2023-03-01T10:49:29;99007.09;;;5.24;51.32
59194;BME280;44967;48.598;15.650;2023-03-01T10:51:55;99009.75;;;5.33;50.90
59194;BME280;44967;48.598;15.650;2023-03-01T10:54:32;98998.41;;;5.40;51.12
59194;BME280;44967;48.598;15.650;2023-03-01T10:57:00;99001.91;;;5.33;50.40
59194;BME280;44967;48.598;15.650;2023-03-01T10:59:31;98989.66;;;5.29;51.69
59194;BME280;44967;48.598;15.650;2023-03-01T11:04:34;98983.53;;;5.39;51.35
59194;BME280;44967;48.598;15.650;2023-03-01T11:07:01;98975.72;;;5.60;50.20
59194;BME280;44967;48.598;15.650;2023-03-01T11:09:31;98988.78;;;5.47;50.67
59194;BME280;44967;48.598;15.650;2023-03-01T11:12:04;98975.66;;;5.38;50.55
59194;BME280;44967;48.598;15.650;2023-03-01T11:14:36;98980.06;;;5.75;50.35
59194;BME280;44967;48.598;15.650;2023-03-01T11:17:04;98973.09;;;5.86;49.25
59194;BME280;44967;48.598;15.650;2023-03-01T11:19:30;98965.19;;;6.06;49.58
59194;BME280;44967;48.598;15.650;2023-03-01T11:22:17;98956.44;;;6.19;49.38
59194;BME280;44967;48.598;15.650;2023-03-01T11:24:51;98954.69;;;6.20;49.09
59194;BME280;44967;48.598;15.650;2023-03-01T11:27:29;98945.97;;;6.02;49.13
59194;BME280;44967;48.598;15.650;2023-03-01T11:30:12;98941.53;;;6.16;48.88
59194;BME280;44967;48.598;15.650;2023-03-01T11:32:56;98945.94;;;6.19;49.49
59194;BME280;44967;48.598;15.650;2023-03-01T11:35:27;98940.69;;;6.16;48.53
59194;BME280;44967;48.598;15.650;2023-03-01T11:38:16;98933.69;;;6.13;49.53
59194;BME280;44967;48.598;15.650;2023-03-01T11:46:26;98940.69;;;6.10;49.49
59194;BME280;44967;48.598;15.650;2023-03-01T11:52:06;98931.94;;;6.23;49.49
59194;BME280;44967;48.598;15.650;2023-03-01T12:01:09;98937.19;;;6.23;49.03
59194;BME280;44967;48.598;15.650;2023-03-01T12:06:57;98926.72;;;5.73;50.12
59194;BME280;44967;48.598;15.650;2023-03-01T12:12:28;98929.34;;;6.02;49.97
59194;BME280;44967;48.598;15.650;2023-03-01T12:20:26;98925.84;;;6.07;49.73
59194;BME280;44967;48.598;15.650;2023-03-01T12:25:29;98921.47;;;6.11;49.68
59194;BME280;44967;48.598;15.650;2023-03-01T12:31:00;98924.13;;;6.00;49.49
59194;BME280;44967;48.598;15.650;2023-03-01T12:47:51;98925.00;;;5.92;50.63
59194;BME280;44967;48.598;15.650;2023-03-01T12:50:25;98928.47;;;6.06;50.17
59194;BME280;44967;48.598;15.650;2023-03-01T12:52:56;98929.34;;;5.93;50.09
59194;BME280;44967;48.598;15.650;2023-03-01T12:55:35;98924.13;;;5.94;50.23
59194;BME280;44967;48.598;15.650;2023-03-01T12:58:23;98930.25;;;5.80;50.53
59194;BME280;44967;48.598;15.650;2023-03-01T13:09:29;98915.41;;;5.86;50.23
59194;BME280;44967;48.598;15.650;2023-03-01T13:11:57;98914.53;;;5.77;50.35
59194;BME280;44967;48.598;15.650;2023-03-01T13:16:52;98909.25;;;5.90;51.10
59194;BME280;44967;48.598;15.650;2023-03-01T13:19:24;98914.47;;;6.05;50.66
59194;BME280;44967;48.598;15.650;2023-03-01T13:21:52;98907.47;;;6.12;50.02
59194;BME280;44967;48.598;15.650;2023-03-01T13:27:09;98912.69;;;6.23;50.11
59194;BME280;44967;48.598;15.650;2023-03-01T13:29:52;98910.94;;;6.20;50.35
59194;BME280;44967;48.598;15.650;2023-03-01T13:32:27;98897.81;;;6.22;50.07
59194;BME280;44967;48.598;15.650;2023-03-01T13:35:00;98900.41;;;6.35;50.11
59194;BME280;44967;48.598;15.650;2023-03-01T13:37:31;98897.72;;;6.41;50.46
59194;BME280;44967;48.598;15.650;2023-03-01T13:40:01;98895.97;;;6.42;50.31
59194;BME280;44967;48.598;15.650;2023-03-01T13:42:37;98898.59;;;6.43;50.97
59194;BME280;44967;48.598;15.650;2023-03-01T13:47:43;98892.53;;;6.35;50.64
59194;BME280;44967;48.598;15.650;2023-03-01T13:50:20;98884.59;;;6.41;50.00
59194;BME280;44967;48.598;15.650;2023-03-01T13:52:55;98891.53;;;6.59;50.13
59194;BME280;44967;48.598;15.650;2023-03-01T13:55:29;98884.50;;;6.61;50.34
59194;BME280;44967;48.598;15.650;2023-03-01T13:57:58;98881.03;;;6.59;50.77
59194;BME280;44967;48.598;15.650;2023-03-01T14:00:30;98883.78;;;6.30;49.28
59194;BME280;44967;48.598;15.650;2023-03-01T14:03:10;98874.06;;;6.50;50.25
59194;BME280;44967;48.598;15.650;2023-03-01T14:05:37;98871.34;;;6.64;49.92
59194;BME280;44967;48.598;15.650;2023-03-01T14:08:14;98877.44;;;6.74;49.72
59194;BME280;44967;48.598;15.650;2023-03-01T14:19:23;98870.47;;;6.70;50.78
59194;BME280;44967;48.598;15.650;2023-03-01T14:24:30;98857.41;;;6.59;50.66
59194;BME280;44967;48.598;15.650;2023-03-01T14:27:00;98857.38;;;6.63;50.57
59194;BME280;44967;48.598;15.650;2023-03-01T14:29:37;98841.50;;;6.76;50.09
59194;BME280;44967;48.598;15.650;2023-03-01T14:32:12;98845.81;;;6.89;49.63
59194;BME280;44967;48.598;15.650;2023-03-01T14:34:43;98838.03;;;6.72;49.50
59194;BME280;44967;48.598;15.650;2023-03-01T14:37:30;98831.91;;;6.72;50.53
59194;BME280;44967;48.598;15.650;2023-03-01T14:39:58;98831.84;;;6.81;50.65
59194;BME280;44967;48.598;15.650;2023-03-01T14:42:28;98825.81;;;6.71;51.06
59194;BME280;44967;48.598;15.650;2023-03-01T14:44:57;98826.63;;;6.78;50.30
59194;BME280;44967;48.598;15.650;2023-03-01T14:47:32;98820.47;;;6.80;51.08
59194;BME280;44967;48.598;15.650;2023-03-01T14:50:04;98822.22;;;6.83;50.49
59194;BME280;44967;48.598;15.650;2023-03-01T14:52:36;98816.97;;;6.81;49.64
59194;BME280;44967;48.598;15.650;2023-03-01T14:55:12;98819.69;;;6.71;50.18